Time;durP1;ratioP1;P1;durP2;ratioP2;P2;SDS_P1;SDS_P2;PMS_P1;PMS_P2;Temp;Humidity;BMP_temperature;BMP_pressure;BME280_temperature;BME280_humidity;BME280_pressure;Samples;Min_cycle;Max_cycle;Signal;HPM_P1;HPM_P2
2021/05/17 00:02:08;;;;;;;0.60;0.50;;;10.10;99.90;;;;;;6143322;23;20403;-89
2021/05/17 00:04:34;;;;;;;0.80;0.50;;;10.10;99.90;;;;;;6139411;23;20201;-88
2021/05/17 00:07:05;;;;;;;0.73;0.70;;;10.10;99.90;;;;;;6140227;23;20734;-88
2021/05/17 00:09:31;;;;;;;1.23;0.53;;;10.10;99.90;;;;;;6141063;23;20403;-88
2021/05/17 00:11:58;;;;;;;0.50;0.50;;;10.00;99.90;;;;;;6142669;23;20395;-88
2021/05/17 00:14:26;;;;;;;1.83;0.40;;;10.00;99.90;;;;;;6142865;23;20704;-88
2021/05/17 00:16:53;;;;;;;3.27;0.37;;;10.00;99.90;;;;;;6141406;23;20713;-88
2021/05/17 00:19:19;;;;;;;2.10;0.57;;;10.00;99.90;;;;;;6144473;23;20448;-87
2021/05/17 00:21:46;;;;;;;0.40;0.40;;;10.00;99.90;;;;;;6143771;23;20450;-89
2021/05/17 00:24:15;;;;;;;0.60;0.40;;;9.90;99.90;;;;;;6142341;23;20528;-89
2021/05/17 00:26:41;;;;;;;0.60;0.60;;;9.90;99.90;;;;;;6143345;23;20394;-88
2021/05/17 00:29:09;;;;;;;2.10;0.60;;;9.90;99.90;;;;;;6141983;23;20520;-89
2021/05/17 00:31:39;;;;;;;1.23;0.40;;;9.90;99.90;;;;;;6144775;23;20406;-88
2021/05/17 00:34:06;;;;;;;0.47;0.47;;;9.90;99.90;;;;;;6143693;23;20754;-89
2021/05/17 00:36:32;;;;;;;1.63;0.50;;;9.90;99.90;;;;;;6144649;23;20700;-87
2021/05/17 00:38:59;;;;;;;1.60;0.60;;;9.90;99.90;;;;;;6141390;23;20455;-87
2021/05/17 00:41:27;;;;;;;0.80;0.80;;;9.90;99.90;;;;;;6144155;23;20397;-85
2021/05/17 00:43:54;;;;;;;0.80;0.60;;;9.90;99.90;;;;;;6144064;23;20441;-87
2021/05/17 00:46:21;;;;;;;1.07;0.90;;;10.00;99.90;;;;;;6141831;23;20397;-85
2021/05/17 00:48:47;;;;;;;1.30;0.70;;;10.00;99.90;;;;;;6142144;23;20836;-85
2021/05/17 00:51:13;;;;;;;0.97;0.63;;;10.00;99.90;;;;;;6141512;23;20468;-86
2021/05/17 00:53:39;;;;;;;0.50;0.50;;;10.00;99.90;;;;;;6144329;23;20597;-86
2021/05/17 00:56:05;;;;;;;1.17;0.50;;;10.00;99.90;;;;;;6141781;23;20385;-86
2021/05/17 00:58:32;;;;;;;0.80;0.80;;;10.00;99.90;;;;;;6143960;23;20512;-87
2021/05/17 01:00:58;;;;;;;0.60;0.60;;;10.00;99.90;;;;;;6118330;23;20384;-85
2021/05/17 01:03:24;;;;;;;0.83;0.47;;;10.00;99.90;;;;;;6143140;23;20455;-85
2021/05/17 01:05:51;;;;;;;2.10;0.80;;;10.00;99.90;;;;;;6144432;23;20392;-86
2021/05/17 01:08:25;;;;;;;1.73;0.50;;;9.90;99.90;;;;;;6142212;23;20216;-88
2021/05/17 01:10:57;;;;;;;0.67;0.50;;;9.90;99.90;;;;;;6143488;23;20397;-88
2021/05/17 01:13:23;;;;;;;0.80;0.50;;;10.00;99.90;;;;;;6143009;23;20399;-87
2021/05/17 01:15:49;;;;;;;1.00;0.50;;;10.00;99.90;;;;;;6141213;23;20395;-88
2021/05/17 01:18:16;;;;;;;0.80;0.40;;;10.00;99.90;;;;;;6143830;23;20431;-87
2021/05/17 01:20:45;;;;;;;1.47;0.70;;;10.00;99.90;;;;;;6143983;23;20426;-87
2021/05/17 01:25:47;;;;;;;0.60;0.50;;;10.00;99.90;;;;;;6173962;23;20400;-85
2021/05/17 01:28:21;;;;;;;0.50;0.50;;;10.00;99.90;;;;;;6172255;23;20387;-86
2021/05/17 01:30:51;;;;;;;0.80;0.80;;;10.00;99.90;;;;;;6171454;23;20411;-86
2021/05/17 01:33:17;;;;;;;0.40;0.40;;;10.00;99.90;;;;;;6172252;23;20924;-89
2021/05/17 01:35:48;;;;;;;0.63;0.63;;;10.10;99.90;;;;;;6146694;23;20755;-86
2021/05/17 01:38:16;;;;;;;1.00;0.37;;;10.10;99.90;;;;;;6174110;23;20413;-87
2021/05/17 01:40:47;;;;;;;3.20;0.63;;;10.00;99.90;;;;;;6172869;23;20774;-85
2021/05/17 01:43:15;;;;;;;0.93;0.70;;;10.00;99.90;;;;;;6173621;23;20485;-86
2021/05/17 01:45:42;;;;;;;0.70;0.40;;;10.00;99.90;;;;;;6172859;23;20394;-86
2021/05/17 01:48:09;;;;;;;0.50;0.50;;;10.00;99.90;;;;;;6173237;23;20388;-87
2021/05/17 01:50:39;;;;;;;1.00;0.40;;;10.00;99.90;;;;;;6171766;23;20552;-87
2021/05/17 01:53:05;;;;;;;1.00;0.43;;;9.90;99.90;;;;;;6172524;23;20391;-85
2021/05/17 01:55:31;;;;;;;0.50;0.50;;;9.90;99.90;;;;;;6169592;23;20832;-86
2021/05/17 01:58:12;;;;;;;1.17;0.47;;;9.90;99.90;;;;;;6174668;23;20481;-85
2021/05/17 02:00:40;;;;;;;1.10;0.60;;;9.90;99.90;;;;;;6171672;23;20191;-86
2021/05/17 02:03:08;;;;;;;0.37;0.37;;;9.90;99.90;;;;;;6171626;23;20781;-86
2021/05/17 02:05:34;;;;;;;0.93;0.50;;;9.90;99.90;;;;;;6172853;23;20743;-85
2021/05/17 02:08:02;;;;;;;0.60;0.33;;;9.80;99.90;;;;;;6174397;23;20383;-86
2021/05/17 02:10:28;;;;;;;1.23;0.50;;;9.80;99.90;;;;;;6172008;23;20412;-85
2021/05/17 02:12:56;;;;;;;0.30;0.30;;;9.70;99.90;;;;;;6171908;23;20499;-86
2021/05/17 02:15:23;;;;;;;0.53;0.30;;;9.70;99.90;;;;;;6173000;23;20402;-87
2021/05/17 02:18:08;;;;;;;0.70;0.40;;;9.70;99.90;;;;;;6173114;23;20471;-87
2021/05/17 02:20:37;;;;;;;0.77;0.30;;;9.60;99.90;;;;;;6146735;23;20416;-86
2021/05/17 02:23:08;;;;;;;1.00;0.53;;;9.60;99.90;;;;;;6142257;23;20464;-86
2021/05/17 02:25:33;;;;;;;1.27;0.40;;;9.60;99.90;;;;;;6142114;23;20768;-85
2021/05/17 02:27:59;;;;;;;0.50;0.37;;;9.70;99.90;;;;;;6144958;23;20398;-86
2021/05/17 02:30:26;;;;;;;0.80;0.53;;;9.70;99.90;;;;;;6144952;23;20868;-86
2021/05/17 02:32:52;;;;;;;0.30;0.30;;;9.80;99.90;;;;;;6144111;23;20929;-87
2021/05/17 02:35:20;;;;;;;0.57;0.27;;;9.70;99.90;;;;;;6144428;23;20736;-87
2021/05/17 02:37:46;;;;;;;1.67;0.30;;;9.60;99.90;;;;;;6142340;23;20424;-85
2021/05/17 02:40:13;;;;;;;0.50;0.30;;;9.60;99.90;;;;;;6143961;23;20404;-86
2021/05/17 02:42:43;;;;;;;0.30;0.20;;;9.50;99.90;;;;;;6144126;23;20969;-85
2021/05/17 02:45:09;;;;;;;0.20;0.20;;;9.40;99.90;;;;;;6143429;23;20441;-86
2021/05/17 02:47:36;;;;;;;0.63;0.63;;;9.40;99.90;;;;;;6147181;23;20399;-85
2021/05/17 02:50:07;;;;;;;0.83;0.30;;;9.30;99.90;;;;;;6145527;23;20405;-86
2021/05/17 02:52:35;;;;;;;0.30;0.30;;;9.40;99.90;;;;;;6143768;23;20388;-86
2021/05/17 02:55:13;;;;;;;0.80;0.37;;;9.40;99.90;;;;;;6143190;23;20398;-86
2021/05/17 02:58:05;;;;;;;0.30;0.30;;;9.30;99.90;;;;;;6147863;23;20428;-85
2021/05/17 03:00:36;;;;;;;0.40;0.30;;;9.30;99.90;;;;;;6144244;23;20435;-86
2021/05/17 03:03:02;;;;;;;0.30;0.30;;;9.30;99.90;;;;;;6120753;23;20405;-87
2021/05/17 03:05:33;;;;;;;0.50;0.30;;;9.30;99.90;;;;;;6116159;23;20776;-86
2021/05/17 03:08:06;;;;;;;1.10;0.30;;;9.40;99.90;;;;;;6145524;23;20161;-87
2021/05/17 03:10:34;;;;;;;0.30;0.30;;;9.40;99.90;;;;;;6115533;23;20458;-87
2021/05/17 03:13:08;;;;;;;0.70;0.40;;;9.40;99.90;;;;;;6142464;23;20401;-87
2021/05/17 03:15:34;;;;;;;0.30;0.30;;;9.40;99.90;;;;;;6144185;23;20771;-87
2021/05/17 03:18:00;;;;;;;1.07;0.57;;;9.50;99.90;;;;;;6144612;23;20407;-86
2021/05/17 03:20:29;;;;;;;0.73;0.30;;;9.60;99.90;;;;;;6143420;23;20911;-87
2021/05/17 03:22:57;;;;;;;0.30;0.30;;;9.50;99.90;;;;;;6145329;23;20419;-86
2021/05/17 03:25:30;;;;;;;1.40;0.40;;;9.50;99.90;;;;;;6142981;23;20397;-87
2021/05/17 03:27:55;;;;;;;1.47;0.33;;;9.50;99.90;;;;;;6117866;23;20397;-89
2021/05/17 03:30:21;;;;;;;2.33;0.40;;;9.40;99.90;;;;;;6142513;23;20465;-89
2021/05/17 03:32:48;;;;;;;0.90;0.30;;;9.40;99.90;;;;;;6144409;23;20248;-88
2021/05/17 03:35:14;;;;;;;0.87;0.43;;;9.40;99.90;;;;;;6140921;23;20755;-88
2021/05/17 03:37:40;;;;;;;1.93;0.40;;;9.40;99.90;;;;;;6145315;23;20405;-87
2021/05/17 03:40:06;;;;;;;1.47;0.33;;;9.40;99.90;;;;;;6142052;23;20726;-89
2021/05/17 03:42:32;;;;;;;1.10;0.43;;;9.40;99.90;;;;;;6144012;23;20165;-88
2021/05/17 03:44:58;;;;;;;0.30;0.30;;;9.40;99.90;;;;;;6140000;23;20447;-88
2021/05/17 03:47:23;;;;;;;1.07;0.50;;;9.30;99.90;;;;;;6143710;23;20172;-88
2021/05/17 03:49:49;;;;;;;0.80;0.60;;;9.40;99.90;;;;;;6143618;23;20532;-87
2021/05/17 03:52:15;;;;;;;0.40;0.30;;;9.40;99.90;;;;;;6116914;23;20161;-88
2021/05/17 03:54:41;;;;;;;1.13;0.37;;;9.40;99.90;;;;;;6144851;23;20165;-90
2021/05/17 03:57:07;;;;;;;0.70;0.43;;;9.40;99.90;;;;;;6139714;23;20626;-88
2021/05/17 03:59:33;;;;;;;1.60;0.77;;;9.40;99.90;;;;;;6140891;23;20254;-86
2021/05/17 04:01:59;;;;;;;0.70;0.40;;;9.40;99.90;;;;;;6143105;23;20763;-87
2021/05/17 04:04:26;;;;;;;0.97;0.50;;;9.50;99.90;;;;;;6142787;23;20448;-87
2021/05/17 04:07:15;;;;;;;1.50;0.40;;;9.50;99.90;;;;;;6142370;23;20171;-88
2021/05/17 04:14:57;;;;;;;1.77;0.47;;;9.70;99.90;;;;;;6144493;23;20496;-87
2021/05/17 04:17:22;;;;;;;1.70;0.70;;;9.70;99.90;;;;;;6142341;23;20898;-86
2021/05/17 04:19:48;;;;;;;1.17;0.40;;;9.70;99.90;;;;;;6142581;23;20688;-89
2021/05/17 04:22:14;;;;;;;0.53;0.40;;;9.60;99.90;;;;;;6141924;23;20162;-88
2021/05/17 04:24:39;;;;;;;1.53;0.70;;;9.70;99.90;;;;;;6140895;23;20197;-88
2021/05/17 04:27:05;;;;;;;4.50;0.97;;;9.70;99.90;;;;;;6140822;23;20573;-87
2021/05/17 04:29:31;;;;;;;0.97;0.63;;;9.80;99.90;;;;;;6143253;23;20167;-88
2021/05/17 04:31:57;;;;;;;1.77;0.80;;;9.80;99.90;;;;;;6142983;23;20210;-89
2021/05/17 04:34:23;;;;;;;1.40;0.50;;;9.80;99.90;;;;;;6142153;23;20495;-88
2021/05/17 04:36:48;;;;;;;0.60;0.40;;;9.80;99.90;;;;;;6142553;23;20170;-87
2021/05/17 04:39:14;;;;;;;0.60;0.60;;;9.80;99.90;;;;;;6142575;23;20193;-90
2021/05/17 04:41:40;;;;;;;0.73;0.63;;;9.80;99.90;;;;;;6142117;23;20189;-89
2021/05/17 04:44:06;;;;;;;1.23;0.50;;;9.80;99.90;;;;;;6142318;23;20221;-89
2021/05/17 04:46:31;;;;;;;1.70;0.40;;;9.90;99.90;;;;;;6142907;23;20890;-87
2021/05/17 04:48:57;;;;;;;0.87;0.40;;;9.90;99.90;;;;;;6141877;23;20807;-88
2021/05/17 04:51:24;;;;;;;1.30;0.50;;;9.80;99.90;;;;;;6142778;23;20163;-86
2021/05/17 04:53:52;;;;;;;0.93;0.60;;;9.80;99.90;;;;;;6141076;23;20507;-87
2021/05/17 04:56:21;;;;;;;3.07;0.70;;;9.80;99.90;;;;;;6138402;23;20386;-87
2021/05/17 04:58:46;;;;;;;3.43;0.53;;;9.80;99.90;;;;;;6144844;23;20437;-87
2021/05/17 05:01:15;;;;;;;2.00;0.50;;;9.90;99.90;;;;;;6142902;23;20417;-87
2021/05/17 05:03:41;;;;;;;1.70;0.57;;;9.80;99.90;;;;;;6142387;23;20575;-88
2021/05/17 05:06:07;;;;;;;0.40;0.40;;;9.80;99.90;;;;;;6141996;23;20484;-89
2021/05/17 05:08:37;;;;;;;3.07;0.60;;;9.80;99.90;;;;;;6143179;23;20176;-86
2021/05/17 05:11:03;;;;;;;1.80;0.50;;;9.80;99.90;;;;;;6142178;23;20189;-87
2021/05/17 05:13:28;;;;;;;1.33;0.83;;;9.80;99.90;;;;;;6144934;23;20399;-90
2021/05/17 05:15:54;;;;;;;0.70;0.53;;;9.80;99.90;;;;;;6144286;23;20168;-88
2021/05/17 05:18:21;;;;;;;1.03;0.60;;;9.80;99.90;;;;;;6145450;23;20167;-89
2021/05/17 05:20:47;;;;;;;2.10;0.60;;;9.80;99.90;;;;;;6141438;23;20806;-90
2021/05/17 05:23:16;;;;;;;2.43;0.50;;;9.70;99.90;;;;;;6144745;23;20428;-89
2021/05/17 05:31:24;;;;;;;1.17;0.70;;;9.90;99.90;;;;;;6145883;23;20420;-92
2021/05/17 05:33:50;;;;;;;2.20;0.90;;;10.00;99.90;;;;;;6143377;23;20951;-89
2021/05/17 05:36:16;;;;;;;0.60;0.50;;;10.10;99.90;;;;;;6144305;23;20439;-89
2021/05/17 05:38:41;;;;;;;0.87;0.40;;;10.00;99.90;;;;;;6144946;23;20475;-90
2021/05/17 05:41:07;;;;;;;0.40;0.30;;;10.00;99.90;;;;;;6145669;23;20173;-91
2021/05/17 05:43:34;;;;;;;5.30;0.50;;;10.10;99.90;;;;;;6145454;23;20659;-91
2021/05/17 05:46:00;;;;;;;1.27;0.50;;;10.20;99.90;;;;;;6120287;23;20158;-91
2021/05/17 05:48:30;;;;;;;7.00;0.83;;;10.40;99.90;;;;;;6144383;23;20418;-90
2021/05/17 05:50:56;;;;;;;1.13;0.50;;;10.40;99.90;;;;;;6143309;23;20237;-88
2021/05/17 05:53:22;;;;;;;1.63;0.50;;;10.40;99.90;;;;;;6142733;23;20409;-89
2021/05/17 05:55:47;;;;;;;1.23;0.33;;;10.30;99.90;;;;;;6144698;23;20242;-91
2021/05/17 05:58:15;;;;;;;1.90;0.70;;;10.30;99.90;;;;;;6145049;23;20163;-90
2021/05/17 06:00:42;;;;;;;0.87;0.60;;;10.30;99.90;;;;;;6118077;23;20229;-90
2021/05/17 06:03:16;;;;;;;1.93;0.70;;;10.30;99.90;;;;;;6146381;23;20771;-91
2021/05/17 06:05:42;;;;;;;3.23;0.70;;;10.60;99.90;;;;;;6099266;23;20407;-89
2021/05/17 06:08:07;;;;;;;1.73;0.50;;;10.90;99.90;;;;;;6147004;23;20742;-91
2021/05/17 06:10:42;;;;;;;8.50;1.20;;;11.20;99.90;;;;;;6147741;23;20302;-89
2021/05/17 06:13:10;;;;;;;3.37;0.53;;;11.20;99.90;;;;;;6148506;23;20428;-91
2021/05/17 06:15:40;;;;;;;6.10;0.83;;;11.10;99.90;;;;;;6148076;23;20172;-90
2021/05/17 06:18:07;;;;;;;2.70;0.40;;;11.00;99.90;;;;;;6146815;23;20400;-93
2021/05/17 06:20:33;;;;;;;4.40;1.10;;;11.10;99.90;;;;;;6147803;23;20414;-95
2021/05/17 06:23:00;;;;;;;19.63;4.77;;;11.00;99.90;;;;;;6153340;23;20424;-93
2021/05/17 06:25:30;;;;;;;1.00;0.60;;;11.10;99.90;;;;;;6154354;23;20420;-93
2021/05/17 06:28:30;;;;;;;12.33;1.37;;;11.30;99.90;;;;;;6146218;23;20498;-95
2021/05/17 06:31:02;;;;;;;2.57;0.50;;;11.60;99.90;;;;;;6143462;23;20754;-90
2021/05/17 06:33:29;;;;;;;12.43;2.37;;;11.70;99.90;;;;;;6144537;23;20503;-89
2021/05/17 06:35:59;;;;;;;1.60;0.83;;;11.60;99.90;;;;;;6146002;23;20404;-87
2021/05/17 06:38:25;;;;;;;0.50;0.40;;;11.70;99.90;;;;;;6144830;23;20403;-88
2021/05/17 06:40:56;;;;;;;5.70;0.60;;;11.80;99.90;;;;;;6145894;23;20484;-92
2021/05/17 06:43:22;;;;;;;1.40;0.67;;;11.80;99.90;;;;;;6143694;23;20489;-90
2021/05/17 06:45:49;;;;;;;0.33;0.33;;;11.70;99.90;;;;;;6144549;23;20404;-88
2021/05/17 06:48:15;;;;;;;7.70;5.70;;;11.70;99.90;;;;;;6144883;23;20380;-86
2021/05/17 06:50:40;;;;;;;3.33;1.33;;;11.70;99.90;;;;;;6145614;23;20415;-88
2021/05/17 06:53:06;;;;;;;1.23;0.63;;;11.70;99.90;;;;;;6145052;23;20871;-93
2021/05/17 06:56:01;;;;;;;1.77;0.63;;;11.90;99.90;;;;;;6145615;23;20173;-93
2021/05/17 06:58:25;;;;;;;0.60;0.47;;;12.10;99.90;;;;;;6141053;23;20388;-87
2021/05/17 07:00:53;;;;;;;4.00;0.80;;;12.20;99.90;;;;;;6142857;23;20798;-88
2021/05/17 07:03:19;;;;;;;0.73;0.50;;;11.90;99.90;;;;;;6143329;23;20954;-88
2021/05/17 07:05:46;;;;;;;6.90;1.03;;;11.80;99.90;;;;;;6144707;23;20498;-86
2021/05/17 07:13:39;;;;;;;1.47;0.70;;;11.60;99.90;;;;;;6146649;23;20392;-87
2021/05/17 07:16:04;;;;;;;1.00;0.47;;;11.70;99.90;;;;;;6144106;23;20424;-87
2021/05/17 07:18:30;;;;;;;1.70;0.40;;;11.70;99.90;;;;;;6141713;23;20444;-85
2021/05/17 07:26:11;;;;;;;1.07;0.53;;;11.10;99.90;;;;;;6145396;23;20179;-85
2021/05/17 07:28:38;;;;;;;0.97;0.63;;;11.00;99.90;;;;;;6144723;23;20411;-85
2021/05/17 07:31:06;;;;;;;1.80;0.80;;;10.70;99.90;;;;;;6143399;23;20409;-85
2021/05/17 07:33:33;;;;;;;1.17;0.63;;;10.60;99.90;;;;;;6145259;23;20597;-86
2021/05/17 07:35:59;;;;;;;1.97;1.40;;;10.50;99.90;;;;;;6144643;23;20393;-85
2021/05/17 07:38:32;;;;;;;2.93;0.90;;;10.40;99.90;;;;;;6144928;23;20399;-85
2021/05/17 07:41:02;;;;;;;2.30;0.90;;;10.20;99.90;;;;;;6144628;23;20397;-84
2021/05/17 07:43:29;;;;;;;2.30;0.80;;;10.20;99.90;;;;;;6144061;23;20437;-84
2021/05/17 07:45:55;;;;;;;0.80;0.80;;;10.30;99.90;;;;;;6142773;23;20490;-87
2021/05/17 07:48:21;;;;;;;1.83;0.80;;;10.60;99.90;;;;;;6121219;23;20431;-85
2021/05/17 07:50:47;;;;;;;1.50;1.40;;;10.90;99.90;;;;;;6144222;23;20416;-86
2021/05/17 07:53:13;;;;;;;2.27;1.27;;;11.20;99.90;;;;;;6144430;23;20396;-86
2021/05/17 07:55:40;;;;;;;2.30;1.10;;;11.40;99.90;;;;;;6144517;23;20172;-85
2021/05/17 07:58:07;;;;;;;1.27;0.87;;;11.40;99.90;;;;;;6144719;23;20848;-86
2021/05/17 08:00:32;;;;;;;1.37;0.83;;;11.20;99.90;;;;;;6145451;23;20400;-86
2021/05/17 08:03:04;;;;;;;0.70;0.70;;;11.20;99.90;;;;;;6141427;23;20395;-92
2021/05/17 08:05:31;;;;;;;2.07;1.27;;;11.30;99.90;;;;;;6144989;23;20173;-91
2021/05/17 08:07:57;;;;;;;2.33;1.80;;;11.40;99.90;;;;;;6144254;23;20477;-91
2021/05/17 08:10:24;;;;;;;2.63;1.20;;;11.50;99.90;;;;;;6149270;23;20432;-93
2021/05/17 08:12:50;;;;;;;1.37;1.00;;;11.50;99.90;;;;;;6147965;23;20538;-87
2021/05/17 08:15:15;;;;;;;2.97;1.00;;;11.50;99.90;;;;;;6146746;23;20413;-86
2021/05/17 08:17:42;;;;;;;0.90;0.80;;;11.50;99.90;;;;;;6144183;23;20308;-89
2021/05/17 08:20:08;;;;;;;1.37;0.80;;;11.50;99.90;;;;;;6140655;23;20185;-89
2021/05/17 08:22:37;;;;;;;0.67;0.67;;;11.50;99.90;;;;;;6145130;23;20484;-91
2021/05/17 08:25:05;;;;;;;1.20;0.50;;;11.70;99.90;;;;;;6144569;23;20448;-90
2021/05/17 08:27:30;;;;;;;4.00;0.97;;;12.10;99.90;;;;;;6145076;23;20455;-89
2021/05/17 08:29:56;;;;;;;0.53;0.53;;;12.30;99.90;;;;;;6144311;23;20804;-91
2021/05/17 08:32:22;;;;;;;1.47;1.20;;;12.80;99.90;;;;;;6143887;23;20165;-91
2021/05/17 08:34:48;;;;;;;2.53;2.17;;;13.00;99.90;;;;;;6142347;23;20562;-92
2021/05/17 08:37:14;;;;;;;1.53;0.83;;;13.10;99.90;;;;;;6144531;23;20584;-92
2021/05/17 08:39:42;;;;;;;1.20;0.80;;;12.90;99.90;;;;;;6144384;23;20713;-92
2021/05/17 08:42:08;;;;;;;1.30;0.73;;;12.50;99.90;;;;;;6144780;23;20498;-91
2021/05/17 08:44:36;;;;;;;1.63;0.97;;;12.80;99.90;;;;;;6144467;23;20448;-91
2021/05/17 08:47:03;;;;;;;0.70;0.60;;;12.90;99.90;;;;;;6146666;23;20164;-95
2021/05/17 08:49:29;;;;;;;1.13;0.50;;;13.30;99.90;;;;;;6146370;23;20412;-92
2021/05/17 08:52:02;;;;;;;1.50;0.50;;;13.70;99.90;;;;;;6146562;23;20544;-89
2021/05/17 08:54:29;;;;;;;1.00;0.80;;;13.40;99.90;;;;;;6121948;23;20405;-91
2021/05/17 08:57:00;;;;;;;1.20;0.80;;;13.60;99.90;;;;;;6148984;23;20474;-96
2021/05/17 08:59:25;;;;;;;0.97;0.67;;;13.90;99.90;;;;;;6149814;23;20391;-92
2021/05/17 09:01:54;;;;;;;0.70;0.50;;;14.40;99.90;;;;;;6147062;23;21244;-90
2021/05/17 09:04:19;;;;;;;1.43;0.40;;;13.90;99.90;;;;;;6145268;23;20250;-87
2021/05/17 09:06:48;;;;;;;1.80;0.60;;;13.30;99.90;;;;;;6139851;23;20404;-92
2021/05/17 09:09:29;;;;;;;2.03;0.63;;;13.20;99.90;;;;;;6146372;23;20165;-94
2021/05/17 09:12:01;;;;;;;0.97;0.60;;;13.60;99.90;;;;;;6146296;23;20424;-92
2021/05/17 09:14:27;;;;;;;2.00;0.70;;;13.50;99.90;;;;;;6146867;23;20766;-94
2021/05/17 09:17:02;;;;;;;1.30;0.60;;;13.70;99.90;;;;;;6142961;23;20803;-89
2021/05/17 09:19:32;;;;;;;1.37;0.70;;;13.80;99.90;;;;;;6143884;23;20894;-92
2021/05/17 09:22:12;;;;;;;0.87;0.70;;;13.50;99.90;;;;;;6144379;23;20392;-88
2021/05/17 09:24:43;;;;;;;1.40;0.40;;;13.50;99.90;;;;;;6144024;23;20483;-89
2021/05/17 09:27:12;;;;;;;0.90;0.60;;;13.70;99.90;;;;;;6119185;23;20435;-88
2021/05/17 09:29:40;;;;;;;0.73;0.50;;;13.90;99.90;;;;;;6144730;23;20397;-89
2021/05/17 09:32:18;;;;;;;1.53;0.70;;;13.70;99.90;;;;;;6143210;23;20554;-88
2021/05/17 09:35:01;;;;;;;1.23;0.30;;;13.50;99.90;;;;;;6141903;23;20466;-89
2021/05/17 09:37:29;;;;;;;0.63;0.33;;;13.30;99.90;;;;;;6119175;23;20401;-88
2021/05/17 09:39:55;;;;;;;1.13;0.60;;;12.90;99.90;;;;;;6119961;23;20744;-90
2021/05/17 09:42:23;;;;;;;1.20;0.50;;;12.70;99.90;;;;;;6143599;23;20500;-87
2021/05/17 09:44:50;;;;;;;0.40;0.40;;;12.50;99.90;;;;;;6119740;23;21095;-89
2021/05/17 09:47:21;;;;;;;0.80;0.50;;;12.30;99.90;;;;;;6144063;23;20393;-89
2021/05/17 09:49:50;;;;;;;0.80;0.40;;;12.30;99.90;;;;;;6144248;23;20408;-90
2021/05/17 09:52:33;;;;;;;0.40;0.30;;;12.60;99.90;;;;;;6144945;23;20404;-89
2021/05/17 09:55:10;;;;;;;1.37;0.40;;;13.10;99.90;;;;;;6142440;23;20484;-91
2021/05/17 09:57:47;;;;;;;1.63;0.60;;;13.70;99.90;;;;;;6146283;23;20397;-91
2021/05/17 10:00:14;;;;;;;1.00;0.67;;;14.20;99.90;;;;;;6144688;23;20782;-89
2021/05/17 10:02:42;;;;;;;1.80;0.60;;;14.40;99.90;;;;;;6118693;23;20396;-91
2021/05/17 10:05:23;;;;;;;1.77;0.60;;;14.50;99.90;;;;;;6143659;23;20440;-91
2021/05/17 10:07:59;;;;;;;1.23;0.53;;;14.80;99.90;;;;;;6117825;23;20772;-89
2021/05/17 10:10:27;;;;;;;2.77;1.40;;;14.00;99.90;;;;;;6136290;23;20693;-91
2021/05/17 10:12:55;;;;;;;1.77;1.30;;;14.00;99.90;;;;;;6137525;23;20404;-91
2021/05/17 10:15:23;;;;;;;2.63;0.80;;;14.00;99.90;;;;;;6138428;23;20772;-92
2021/05/17 10:17:49;;;;;;;0.93;0.70;;;13.90;99.90;;;;;;6140725;23;21001;-91
2021/05/17 10:20:20;;;;;;;1.20;0.70;;;13.90;99.90;;;;;;6137604;23;20422;-91
2021/05/17 10:22:47;;;;;;;2.63;1.03;;;14.20;99.90;;;;;;6138266;23;20396;-91
2021/05/17 10:25:24;;;;;;;2.10;1.13;;;14.50;99.90;;;;;;6137496;23;20511;-90
2021/05/17 10:27:52;;;;;;;1.53;0.67;;;14.00;99.90;;;;;;6137873;23;20872;-90
2021/05/17 10:30:24;;;;;;;1.70;0.60;;;13.80;99.90;;;;;;6137358;23;20395;-89
2021/05/17 10:32:53;;;;;;;1.00;0.50;;;13.50;99.90;;;;;;6135468;23;20412;-90
2021/05/17 10:35:24;;;;;;;1.43;0.70;;;13.20;99.90;;;;;;6112232;23;20777;-91
2021/05/17 10:38:10;;;;;;;2.17;0.87;;;13.00;99.90;;;;;;6136330;23;20412;-91
2021/05/17 10:40:46;;;;;;;1.00;0.40;;;13.10;99.90;;;;;;6139473;23;20397;-90
2021/05/17 10:48:27;;;;;;;1.63;0.50;;;14.00;99.90;;;;;;6142535;23;20786;-95
2021/05/17 10:51:15;;;;;;;1.07;0.40;;;13.50;99.90;;;;;;6142436;23;20475;-93
2021/05/17 10:53:49;;;;;;;1.13;0.50;;;13.60;99.90;;;;;;6142381;23;20404;-93
2021/05/17 11:02:15;;;;;;;1.77;0.70;;;13.50;99.90;;;;;;6143188;23;20458;-93
2021/05/17 11:05:22;;;;;;;1.70;0.60;;;13.90;99.90;;;;;;6139325;23;20444;-91
2021/05/17 11:08:00;;;;;;;1.43;0.40;;;14.00;99.90;;;;;;6114944;23;20404;-91
2021/05/17 11:10:26;;;;;;;2.20;0.50;;;14.60;99.90;;;;;;6139427;23;20488;-91
2021/05/17 11:12:57;;;;;;;1.17;0.43;;;14.90;99.90;;;;;;6115531;23;20424;-89
2021/05/17 11:15:47;;;;;;;1.43;0.57;;;14.80;99.90;;;;;;6139652;23;20397;-89
2021/05/17 11:18:13;;;;;;;2.60;0.70;;;14.60;99.90;;;;;;6138590;23;20400;-92
2021/05/17 11:21:04;;;;;;;2.17;0.50;;;14.80;99.90;;;;;;6114187;23;20480;-90
2021/05/17 11:23:36;;;;;;;1.10;0.40;;;15.20;99.30;;;;;;6139788;23;20511;-90
2021/05/17 11:26:08;;;;;;;4.33;0.50;;;15.60;98.70;;;;;;6140105;23;20798;-90
2021/05/17 11:29:23;;;;;;;1.73;0.57;;;15.80;98.30;;;;;;6138968;23;20404;-91
2021/05/17 11:31:56;;;;;;;1.57;0.43;;;15.80;98.30;;;;;;6141044;23;20503;-94
2021/05/17 11:34:25;;;;;;;0.77;0.40;;;15.50;97.70;;;;;;6117029;23;20407;-89
2021/05/17 11:37:10;;;;;;;0.50;0.50;;;15.80;97.00;;;;;;6114176;23;20408;-92
2021/05/17 11:39:41;;;;;;;0.97;0.53;;;15.70;97.20;;;;;;6140259;23;20396;-91
2021/05/17 11:42:09;;;;;;;0.60;0.50;;;15.20;98.30;;;;;;6137614;23;20400;-90
2021/05/17 11:45:12;;;;;;;2.07;0.70;;;14.70;99.90;;;;;;6138058;23;20931;-92
2021/05/17 11:47:31;;;;;;;0.60;0.50;;;14.60;99.90;;;;;;6139245;23;20399;-90
2021/05/17 11:49:58;;;;;;;0.63;0.30;;;14.80;99.20;;;;;;6139885;23;20986;-96
2021/05/17 11:52:29;;;;;;;0.80;0.40;;;15.00;98.20;;;;;;6140360;23;20397;-94
2021/05/17 11:55:00;;;;;;;0.70;0.30;;;14.50;98.10;;;;;;6140662;23;20419;-93
2021/05/17 11:57:59;;;;;;;0.47;0.30;;;14.80;98.90;;;;;;6140782;23;20396;-90
2021/05/17 12:00:44;;;;;;;0.70;0.40;;;15.30;96.40;;;;;;6143469;23;20399;-94
2021/05/17 12:03:10;;;;;;;0.40;0.20;;;15.30;96.80;;;;;;6141588;23;20399;-91
2021/05/17 12:05:37;;;;;;;0.40;0.30;;;15.40;95.70;;;;;;6138554;23;20459;-92
2021/05/17 12:08:23;;;;;;;0.50;0.30;;;15.40;95.80;;;;;;6138630;23;20988;-93
2021/05/17 12:10:49;;;;;;;0.40;0.30;;;15.50;96.20;;;;;;6114328;23;20168;-90
2021/05/17 12:13:28;;;;;;;0.63;0.30;;;15.50;95.90;;;;;;6139892;23;20397;-89
2021/05/17 12:16:02;;;;;;;0.30;0.30;;;15.40;96.30;;;;;;6138591;23;20184;-93
2021/05/17 12:18:36;;;;;;;2.13;0.43;;;15.50;96.20;;;;;;6138587;23;20797;-94
2021/05/17 12:21:11;;;;;;;0.57;0.30;;;15.90;95.10;;;;;;6113880;23;20405;-90
2021/05/17 12:23:49;;;;;;;0.30;0.20;;;15.70;94.80;;;;;;6114206;23;20440;-90
2021/05/17 12:26:16;;;;;;;0.60;0.37;;;15.50;95.20;;;;;;6115248;23;20401;-93
2021/05/17 12:28:43;;;;;;;0.60;0.30;;;15.10;95.20;;;;;;6142085;23;20397;-90
2021/05/17 12:31:23;;;;;;;1.23;0.40;;;15.30;96.00;;;;;;6114761;23;20424;-92
2021/05/17 12:33:57;;;;;;;0.40;0.40;;;15.90;95.70;;;;;;6115043;23;20487;-94
2021/05/17 12:36:23;;;;;;;1.50;0.40;;;16.10;94.70;;;;;;6111985;23;20400;-91
2021/05/17 12:38:56;;;;;;;1.70;0.40;;;16.50;94.50;;;;;;6113299;23;20470;-90
2021/05/17 12:41:48;;;;;;;0.67;0.40;;;16.20;94.30;;;;;;6113054;23;20156;-88
2021/05/17 12:44:39;;;;;;;1.63;0.40;;;16.00;95.00;;;;;;6131462;23;20923;-91
2021/05/17 12:47:15;;;;;;;0.30;0.30;;;16.40;95.30;;;;;;6113170;23;20404;-89
2021/05/17 12:49:59;;;;;;;0.30;0.30;;;16.50;93.80;;;;;;6114228;23;20411;-88
2021/05/17 12:52:43;;;;;;;1.17;0.40;;;16.00;94.20;;;;;;6112559;23;20397;-89
2021/05/17 12:55:24;;;;;;;0.37;0.20;;;16.10;95.30;;;;;;6113274;23;20721;-88
2021/05/17 12:58:00;;;;;;;1.87;0.33;;;16.30;94.20;;;;;;6113910;23;20396;-90
2021/05/17 13:00:59;;;;;;;2.90;0.53;;;16.80;94.10;;;;;;6114204;23;20396;-92
2021/05/17 13:03:27;;;;;;;0.47;0.30;;;17.50;93.30;;;;;;6113659;23;20501;-90
2021/05/17 13:06:05;;;;;;;0.30;0.23;;;17.70;91.90;;;;;;6114091;23;20460;-91
2021/05/17 13:08:44;;;;;;;0.80;0.30;;;17.60;91.90;;;;;;6114602;23;20431;-89
2021/05/17 13:11:12;;;;;;;0.40;0.40;;;17.50;92.50;;;;;;6113899;23;20428;-90
2021/05/17 13:14:00;;;;;;;3.50;0.60;;;17.80;92.20;;;;;;6113963;23;20433;-90
2021/05/17 13:16:31;;;;;;;0.30;0.30;;;17.80;91.70;;;;;;6114140;23;20405;-90
2021/05/17 13:30:01;;;;;;;4.30;0.33;;;16.50;96.20;;;;;;6145116;23;20392;-90
2021/05/17 13:31:05;;;;;;;4.53;1.37;;;17.40;94.70;;;;;;6170603;23;20844;-91
2021/05/17 13:33:43;;;;;;;1.40;0.40;;;17.80;93.80;;;;;;6162348;23;20388;-89
2021/05/17 13:36:22;;;;;;;2.20;0.97;;;18.80;92.50;;;;;;6143931;23;20457;-93
2021/05/17 13:38:51;;;;;;;6.33;1.97;;;18.90;92.30;;;;;;6143901;23;20442;-91
2021/05/17 13:41:19;;;;;;;16.80;2.47;;;18.60;90.60;;;;;;6143450;23;20380;-90
2021/05/17 13:43:45;;;;;;;17.13;1.87;;;17.80;92.80;;;;;;6171379;23;20435;-92
2021/05/17 13:46:55;;;;;;;;;;;;;;;;;;;;;
2021/05/17 13:49:24;;;;;;;0.83;0.30;;;16.00;95.40;;;;;;6154783;23;20396;-90
2021/05/17 13:51:50;;;;;;;1.53;0.43;;;15.60;96.20;;;;;;6143850;23;20886;-91